createdAt,value
2022-10-18T00:00:57.410Z,20.90
2022-10-18T00:01:57.399Z,22.10
2022-10-18T00:02:57.356Z,21.00
2022-10-18T00:03:57.333Z,18.70
2022-10-18T00:04:57.322Z,18.30
2022-10-18T00:05:57.328Z,18.50
2022-10-18T00:06:57.274Z,17.80
2022-10-18T00:07:57.309Z,21.90
2022-10-18T00:08:57.244Z,25.40
2022-10-18T00:09:57.268Z,30.10
2022-10-18T00:10:57.264Z,28.00
2022-10-18T00:11:57.234Z,29.20
2022-10-18T00:12:57.199Z,28.10
2022-10-18T00:13:57.211Z,28.30
2022-10-18T00:14:57.236Z,25.10
2022-10-18T00:15:57.200Z,31.50
2022-10-18T00:16:57.168Z,21.70
2022-10-18T00:17:57.156Z,24.40
2022-10-18T00:18:57.173Z,24.40
2022-10-18T00:19:57.184Z,21.70
2022-10-18T00:20:57.147Z,24.00
2022-10-18T00:21:57.136Z,22.70
2022-10-18T00:22:57.125Z,27.10
2022-10-18T00:23:57.105Z,27.30
2022-10-18T00:24:57.099Z,26.60
2022-10-18T00:25:57.137Z,25.60
2022-10-18T00:26:57.078Z,25.50
2022-10-18T00:27:57.105Z,22.40
2022-10-18T00:28:57.103Z,24.30
2022-10-18T00:29:57.048Z,24.20
2022-10-18T00:30:57.016Z,30.20
2022-10-18T00:31:57.063Z,30.80
2022-10-18T00:32:57.027Z,27.10
2022-10-18T00:33:56.993Z,21.10
2022-10-18T00:34:57.017Z,28.30
2022-10-18T00:35:57.018Z,27.50
2022-10-18T00:36:56.942Z,33.10
2022-10-18T00:37:56.970Z,21.30
2022-10-18T00:38:56.949Z,26.80
2022-10-18T00:39:56.951Z,38.10
2022-10-18T00:40:56.949Z,34.20
2022-10-18T00:41:56.940Z,42.70
2022-10-18T00:42:56.914Z,47.40
2022-10-18T00:43:56.930Z,54.40
2022-10-18T00:44:56.880Z,48.80
2022-10-18T00:45:56.885Z,41.70
2022-10-18T00:46:56.883Z,35.10
2022-10-18T00:47:56.890Z,28.40
2022-10-18T00:48:56.852Z,22.30
2022-10-18T00:49:56.826Z,21.20
2022-10-18T00:50:56.800Z,51.90
2022-10-18T00:51:56.838Z,21.40
2022-10-18T00:52:56.785Z,44.40
2022-10-18T00:53:56.800Z,65.90
2022-10-18T00:54:56.773Z,64.00
2022-10-18T00:55:56.774Z,46.90
2022-10-18T00:56:56.767Z,65.20
2022-10-18T00:57:56.734Z,55.00
2022-10-18T00:58:56.702Z,32.90
2022-10-18T00:59:56.702Z,30.10
2022-10-18T01:00:56.747Z,30.20
2022-10-18T01:01:56.817Z,20.20
2022-10-18T01:02:56.667Z,23.90
2022-10-18T01:03:56.673Z,21.20
2022-10-18T01:04:56.669Z,21.80
2022-10-18T01:05:56.711Z,22.20
2022-10-18T01:07:56.648Z,31.60
2022-10-18T01:08:56.624Z,27.50
2022-10-18T01:09:56.620Z,35.10
2022-10-18T01:10:56.651Z,25.50
2022-10-18T01:11:56.623Z,24.10
2022-10-18T01:12:56.591Z,58.40
2022-10-18T01:13:56.566Z,39.90
2022-10-18T01:14:56.587Z,23.40
2022-10-18T01:16:56.553Z,20.80
2022-10-18T01:17:56.531Z,18.90
2022-10-18T01:18:56.516Z,19.20
2022-10-18T01:19:56.533Z,23.40
2022-10-18T01:20:56.487Z,17.40
2022-10-18T01:21:56.475Z,24.50
2022-10-18T01:22:56.509Z,21.80
2022-10-18T01:23:56.487Z,19.60
2022-10-18T01:24:56.492Z,22.80
2022-10-18T01:25:56.449Z,22.30
2022-10-18T01:26:56.431Z,47.40
2022-10-18T01:27:56.411Z,31.10
2022-10-18T01:28:56.443Z,30.50
2022-10-18T01:29:56.397Z,27.80
2022-10-18T01:30:56.375Z,21.90
2022-10-18T01:31:58.872Z,42.90
2022-10-18T01:32:56.360Z,23.60
2022-10-18T01:33:56.415Z,22.90
2022-10-18T01:34:56.332Z,20.70
2022-10-18T01:35:56.352Z,19.50
2022-10-18T01:36:56.318Z,19.00
2022-10-18T01:37:56.321Z,22.00
2022-10-18T01:38:56.316Z,18.20
2022-10-18T01:39:56.284Z,20.90
2022-10-18T01:40:56.281Z,20.10
2022-10-18T01:41:56.318Z,24.50
2022-10-18T01:42:56.356Z,20.80
2022-10-18T01:43:56.256Z,19.80
2022-10-18T01:44:56.258Z,22.10
2022-10-18T01:45:56.214Z,23.90
2022-10-18T01:46:56.233Z,24.60
2022-10-18T01:47:56.225Z,41.80
2022-10-18T01:48:56.190Z,42.70
2022-10-18T01:49:56.204Z,50.10
2022-10-18T01:50:56.164Z,45.70
2022-10-18T01:51:56.287Z,24.80
2022-10-18T01:52:56.174Z,20.90
2022-10-18T01:53:56.225Z,18.40
2022-10-18T01:54:56.131Z,16.20
2022-10-18T01:55:56.450Z,18.90
2022-10-18T01:56:56.093Z,17.20
2022-10-18T01:57:56.107Z,19.10
2022-10-18T01:58:56.083Z,22.50
2022-10-18T01:59:56.095Z,18.60
2022-10-18T02:00:56.045Z,23.00
2022-10-18T02:01:56.087Z,22.10
2022-10-18T02:02:56.027Z,28.40
2022-10-18T02:03:56.106Z,48.80
2022-10-18T02:04:56.009Z,49.50
2022-10-18T02:05:56.057Z,73.30
2022-10-18T02:06:56.027Z,45.60
2022-10-18T02:08:12.020Z,28.90
2022-10-18T02:08:55.986Z,26.10
2022-10-18T02:09:55.974Z,21.90
2022-10-18T02:10:55.955Z,28.10
2022-10-18T02:11:55.959Z,30.00
2022-10-18T02:12:55.929Z,32.60
2022-10-18T02:13:56.031Z,27.60
2022-10-18T02:14:55.896Z,25.00
2022-10-18T02:15:55.918Z,21.90
2022-10-18T02:16:55.926Z,22.80
2022-10-18T02:17:55.934Z,27.40
2022-10-18T02:18:55.864Z,27.60
2022-10-18T02:19:55.847Z,28.30
2022-10-18T02:20:55.855Z,28.00
2022-10-18T02:21:55.859Z,26.20
2022-10-18T02:22:55.831Z,23.40
2022-10-18T02:23:55.832Z,34.10
2022-10-18T02:24:55.868Z,41.80
2022-10-18T02:25:55.840Z,40.50
2022-10-18T02:26:55.786Z,59.70
2022-10-18T02:27:55.782Z,55.30
2022-10-18T02:28:55.793Z,38.50
2022-10-18T02:29:55.784Z,24.10
2022-10-18T02:30:55.750Z,23.40
2022-10-18T02:31:55.723Z,24.70
2022-10-18T02:32:55.758Z,25.20
2022-10-18T02:33:55.708Z,20.90
2022-10-18T02:34:55.696Z,20.30
2022-10-18T02:35:55.679Z,22.30
2022-10-18T02:36:55.761Z,29.40
2022-10-18T02:37:55.661Z,21.60
2022-10-18T02:38:55.683Z,23.50
2022-10-18T02:39:55.700Z,27.00
2022-10-18T02:40:55.677Z,30.80
2022-10-18T02:41:55.649Z,32.10
2022-10-18T02:42:55.598Z,30.40
2022-10-18T02:43:55.603Z,32.00
2022-10-18T02:44:55.593Z,24.40
2022-10-18T02:45:55.574Z,23.50
2022-10-18T02:46:55.588Z,20.90
2022-10-18T02:47:55.587Z,20.10
2022-10-18T02:48:55.577Z,19.10
2022-10-18T02:49:55.570Z,18.40
2022-10-18T02:50:55.517Z,20.40
2022-10-18T02:51:55.508Z,26.20
2022-10-18T02:52:55.533Z,26.50
2022-10-18T02:53:55.545Z,25.90
2022-10-18T02:54:55.489Z,24.70
2022-10-18T02:55:55.485Z,23.30
2022-10-18T02:56:55.457Z,23.60
2022-10-18T02:57:55.462Z,24.90
2022-10-18T02:58:55.461Z,23.90
2022-10-18T02:59:55.423Z,29.90
2022-10-18T03:00:55.442Z,24.80
2022-10-18T03:01:55.555Z,25.10
2022-10-18T03:02:55.430Z,44.70
2022-10-18T03:03:55.427Z,48.30
2022-10-18T03:04:55.389Z,48.30
2022-10-18T03:05:55.358Z,28.90
2022-10-18T03:06:55.375Z,22.20
2022-10-18T03:07:55.341Z,35.00
2022-10-18T03:08:55.373Z,38.30
2022-10-18T03:09:55.354Z,44.00
2022-10-18T03:10:55.319Z,27.10
2022-10-18T03:11:55.290Z,21.20
2022-10-18T03:12:55.309Z,27.30
2022-10-18T03:13:55.282Z,24.90
2022-10-18T03:14:55.292Z,22.10
2022-10-18T03:15:55.243Z,29.80
2022-10-18T03:16:55.277Z,22.90
2022-10-18T03:17:55.218Z,22.90
2022-10-18T03:18:55.252Z,23.70
2022-10-18T03:19:55.229Z,21.50
2022-10-18T03:20:55.226Z,21.00
2022-10-18T03:21:55.191Z,33.20
2022-10-18T03:22:55.189Z,44.50
2022-10-18T03:23:55.160Z,46.90
2022-10-18T03:24:55.174Z,24.10
2022-10-18T03:25:55.139Z,19.60
2022-10-18T03:26:55.136Z,21.60
2022-10-18T03:27:55.120Z,21.70
2022-10-18T03:28:55.227Z,23.00
2022-10-18T03:29:55.087Z,19.80
2022-10-18T03:30:55.103Z,19.50
2022-10-18T03:31:55.072Z,27.00
2022-10-18T03:32:55.068Z,52.80
2022-10-18T03:33:55.052Z,50.30
2022-10-18T03:34:55.056Z,53.80
2022-10-18T03:35:55.063Z,56.80
2022-10-18T03:36:55.028Z,39.90
2022-10-18T03:37:55.017Z,51.70
2022-10-18T03:38:55.007Z,51.60
2022-10-18T03:39:54.987Z,54.90
2022-10-18T03:40:55.004Z,59.60
2022-10-18T03:41:55.011Z,33.60
2022-10-18T03:42:54.976Z,39.00
2022-10-18T03:43:54.949Z,36.30
2022-10-18T03:44:54.954Z,36.40
2022-10-18T03:45:54.953Z,36.80
2022-10-18T03:46:54.943Z,37.10
2022-10-18T03:47:54.919Z,44.80
2022-10-18T03:48:54.902Z,34.70
2022-10-18T03:49:57.159Z,37.40
2022-10-18T03:50:54.896Z,35.10
2022-10-18T03:51:54.892Z,32.00
2022-10-18T03:52:54.873Z,34.70
2022-10-18T03:53:54.833Z,28.30
2022-10-18T03:54:54.837Z,24.10
2022-10-18T03:55:54.830Z,26.00
2022-10-18T03:56:54.810Z,26.80
2022-10-18T03:57:54.806Z,43.50
2022-10-18T03:58:54.792Z,31.60
2022-10-18T03:59:54.805Z,33.20
2022-10-18T04:00:55.721Z,47.30
2022-10-18T04:01:54.789Z,31.30
2022-10-18T04:02:55.994Z,60.20
2022-10-18T04:03:54.726Z,67.30
2022-10-18T04:04:54.728Z,69.70
2022-10-18T04:05:54.701Z,37.00
2022-10-18T04:06:54.758Z,39.60
2022-10-18T04:07:54.695Z,22.50
2022-10-18T04:08:54.673Z,23.50
2022-10-18T04:09:54.668Z,22.30
2022-10-18T04:10:54.686Z,17.70
2022-10-18T04:11:54.658Z,20.00
2022-10-18T04:12:54.665Z,17.90
2022-10-18T04:13:54.645Z,17.50
2022-10-18T04:14:55.744Z,25.20
2022-10-18T04:15:54.636Z,40.80
2022-10-18T04:16:54.588Z,51.60
2022-10-18T04:17:54.614Z,33.30
2022-10-18T04:18:54.600Z,29.00
2022-10-18T04:19:54.561Z,40.90
2022-10-18T04:20:54.559Z,25.80
2022-10-18T04:21:54.591Z,26.50
2022-10-18T04:22:54.549Z,25.00
2022-10-18T04:23:54.531Z,30.20
2022-10-18T04:24:54.543Z,19.90
2022-10-18T04:25:54.514Z,23.80
2022-10-18T04:26:54.517Z,26.60
2022-10-18T04:27:54.485Z,46.10
2022-10-18T04:28:54.587Z,23.80
2022-10-18T04:29:54.435Z,24.60
2022-10-18T04:30:54.453Z,21.70
2022-10-18T04:31:54.469Z,26.60
2022-10-18T04:32:54.441Z,26.70
2022-10-18T04:33:54.420Z,21.00
2022-10-18T04:34:54.413Z,56.80
2022-10-18T04:35:54.397Z,43.50
2022-10-18T04:36:54.412Z,67.60
2022-10-18T04:37:54.369Z,53.10
2022-10-18T04:38:54.358Z,82.50
2022-10-18T04:39:54.362Z,49.50
2022-10-18T04:40:54.359Z,56.00
2022-10-18T04:41:54.337Z,64.10
2022-10-18T04:42:54.330Z,23.20
2022-10-18T04:43:54.290Z,26.20
2022-10-18T04:44:54.329Z,36.10
2022-10-18T04:45:54.289Z,38.00
2022-10-18T04:46:54.293Z,62.20
2022-10-18T04:47:54.264Z,23.30
2022-10-18T04:48:54.269Z,22.80
2022-10-18T04:49:54.233Z,26.50
2022-10-18T04:50:54.275Z,33.30
2022-10-18T04:51:54.235Z,28.30
2022-10-18T04:52:54.242Z,34.70
2022-10-18T04:53:54.201Z,37.40
2022-10-18T04:54:54.182Z,34.30
2022-10-18T04:55:54.211Z,39.60
2022-10-18T04:56:54.217Z,57.90
2022-10-18T04:57:54.174Z,70.20
2022-10-18T04:58:54.149Z,74.70
2022-10-18T04:59:54.119Z,59.00
2022-10-18T05:00:54.139Z,34.80
2022-10-18T05:01:54.215Z,41.80
2022-10-18T05:02:54.128Z,29.90
2022-10-18T05:03:54.094Z,37.00
2022-10-18T05:04:54.077Z,54.60
2022-10-18T05:06:01.931Z,69.80
2022-10-18T05:06:54.093Z,39.50
2022-10-18T05:07:54.061Z,23.70
2022-10-18T05:08:54.046Z,30.50
2022-10-18T05:09:54.033Z,28.00
2022-10-18T05:10:54.102Z,62.30
2022-10-18T05:11:53.993Z,26.60
2022-10-18T05:12:54.021Z,27.10
2022-10-18T05:13:54.021Z,27.60
2022-10-18T05:14:56.244Z,22.70
2022-10-18T05:15:53.958Z,30.00
2022-10-18T05:16:53.949Z,59.80
2022-10-18T05:17:53.935Z,21.40
2022-10-18T05:18:53.967Z,28.20
2022-10-18T05:19:53.940Z,23.90
2022-10-18T05:20:53.944Z,25.50
2022-10-18T05:21:53.889Z,25.70
2022-10-18T05:22:53.893Z,40.50
2022-10-18T05:23:53.872Z,28.20
2022-10-18T05:24:53.886Z,25.20
2022-10-18T05:25:53.872Z,26.00
2022-10-18T05:26:53.865Z,27.60
2022-10-18T05:27:53.830Z,24.60
2022-10-18T05:28:53.883Z,40.80
2022-10-18T05:29:53.857Z,72.60
2022-10-18T05:30:53.827Z,110.70
2022-10-18T05:31:53.808Z,327.10
2022-10-18T05:32:53.754Z,850.10
2022-10-18T05:33:53.726Z,162.00
2022-10-18T05:34:53.723Z,47.30
2022-10-18T05:35:53.692Z,30.70
2022-10-18T05:36:53.699Z,33.90
2022-10-18T05:37:53.672Z,32.70
2022-10-18T05:38:53.667Z,33.10
2022-10-18T05:39:53.648Z,37.00
2022-10-18T05:40:53.670Z,26.80
2022-10-18T05:41:53.642Z,25.70
2022-10-18T05:42:53.619Z,30.00
2022-10-18T05:43:53.599Z,47.90
2022-10-18T05:44:53.633Z,39.50
2022-10-18T05:45:53.585Z,408.30
2022-10-18T05:46:53.608Z,36.50
2022-10-18T05:47:53.565Z,71.80
2022-10-18T05:48:53.549Z,51.90
2022-10-18T05:49:53.545Z,38.30
2022-10-18T05:50:53.527Z,31.30
2022-10-18T05:51:53.557Z,34.70
2022-10-18T05:52:53.526Z,35.70
2022-10-18T05:53:53.506Z,62.20
2022-10-18T05:54:53.496Z,74.40
2022-10-18T05:55:53.464Z,90.30
2022-10-18T05:56:53.494Z,42.80
2022-10-18T05:57:53.455Z,30.60
2022-10-18T05:58:53.449Z,37.20
2022-10-18T05:59:53.420Z,29.20
2022-10-18T06:00:53.434Z,27.50
2022-10-18T06:01:53.416Z,36.60
2022-10-18T06:02:55.258Z,28.40
2022-10-18T06:03:53.430Z,31.70
2022-10-18T06:04:53.395Z,30.50
2022-10-18T06:05:53.366Z,26.40
2022-10-18T06:06:53.365Z,28.10
2022-10-18T06:07:53.336Z,35.10
2022-10-18T06:08:53.357Z,27.20
2022-10-18T06:09:53.374Z,36.10
2022-10-18T06:10:53.362Z,31.30
2022-10-18T06:11:53.327Z,27.70
2022-10-18T06:12:53.297Z,33.80
2022-10-18T06:13:53.294Z,26.80
2022-10-18T06:14:53.319Z,32.40
2022-10-18T06:15:53.279Z,25.70
2022-10-18T06:16:53.375Z,28.00
2022-10-18T06:17:53.246Z,32.40
2022-10-18T06:18:53.251Z,31.30
2022-10-18T06:19:53.256Z,41.50
2022-10-18T06:20:53.200Z,52.90
2022-10-18T06:21:53.204Z,71.10
2022-10-18T06:22:53.190Z,78.80
2022-10-18T06:23:53.194Z,49.70
2022-10-18T06:24:57.131Z,52.90
2022-10-18T06:25:53.181Z,54.50
2022-10-18T06:26:53.199Z,64.00
2022-10-18T06:27:53.144Z,66.50
2022-10-18T06:28:53.206Z,71.20
2022-10-18T06:29:53.125Z,99.00
2022-10-18T06:30:53.111Z,56.00
2022-10-18T06:31:53.088Z,73.20
2022-10-18T06:32:53.099Z,87.20
2022-10-18T06:33:53.080Z,120.50
2022-10-18T06:34:53.069Z,86.90
2022-10-18T06:35:53.056Z,84.80
2022-10-18T06:36:56.564Z,83.00
2022-10-18T06:37:53.045Z,76.50
2022-10-18T06:38:53.008Z,97.80
2022-10-18T06:39:53.028Z,48.70
2022-10-18T06:40:52.996Z,38.90
2022-10-18T06:41:52.984Z,40.70
2022-10-18T06:43:00.133Z,40.70
2022-10-18T06:43:52.971Z,52.90
2022-10-18T06:44:52.943Z,85.90
2022-10-18T06:45:53.016Z,61.50
2022-10-18T06:46:52.982Z,73.00
2022-10-18T06:47:52.907Z,113.50
2022-10-18T06:48:53.207Z,172.20
2022-10-18T06:49:52.925Z,146.70
2022-10-18T06:50:52.892Z,99.90
2022-10-18T06:51:52.883Z,147.30
2022-10-18T06:52:52.888Z,133.30
2022-10-18T06:54:13.022Z,158.40
2022-10-18T06:54:52.868Z,172.10
2022-10-18T06:55:52.855Z,188.00
2022-10-18T06:56:52.820Z,172.40
2022-10-18T06:57:52.849Z,151.10
2022-10-18T06:58:52.852Z,204.50
2022-10-18T06:59:52.784Z,211.90
2022-10-18T07:00:52.808Z,163.40
2022-10-18T07:01:52.840Z,197.10
2022-10-18T07:02:52.789Z,203.90
2022-10-18T07:03:52.765Z,202.00
2022-10-18T07:04:52.734Z,218.40
2022-10-18T07:05:52.771Z,223.40
2022-10-18T07:06:52.715Z,228.20
2022-10-18T07:07:55.682Z,210.30
2022-10-18T07:08:52.702Z,222.60
2022-10-18T07:09:52.685Z,227.70
2022-10-18T07:10:52.671Z,219.60
2022-10-18T07:11:52.677Z,198.70
2022-10-18T07:12:59.248Z,213.30
2022-10-18T07:13:52.653Z,186.40
2022-10-18T07:14:52.646Z,148.80
2022-10-18T07:15:52.645Z,184.50
2022-10-18T07:16:52.592Z,141.90
2022-10-18T07:17:52.612Z,143.90
2022-10-18T07:18:52.598Z,176.30
2022-10-18T07:19:52.637Z,163.80
2022-10-18T07:20:52.553Z,123.30
2022-10-18T07:21:52.582Z,171.00
2022-10-18T07:22:52.594Z,174.90
2022-10-18T07:23:52.555Z,217.40
2022-10-18T07:24:52.509Z,188.10
2022-10-18T07:25:52.522Z,185.50
2022-10-18T07:26:52.520Z,172.60
2022-10-18T07:27:52.481Z,176.70
2022-10-18T07:28:52.586Z,174.50
2022-10-18T07:29:52.478Z,171.40
2022-10-18T07:30:52.483Z,180.80
2022-10-18T07:31:52.566Z,177.10
2022-10-18T07:32:52.426Z,175.40
2022-10-18T07:33:52.441Z,178.60
2022-10-18T07:34:52.419Z,166.70
2022-10-18T07:35:52.412Z,175.60
2022-10-18T07:36:52.395Z,171.70
2022-10-18T07:37:52.410Z,162.70
2022-10-18T07:38:52.418Z,156.80
2022-10-18T07:39:52.367Z,175.20
2022-10-18T07:40:52.356Z,162.10
2022-10-18T07:41:52.333Z,177.50
2022-10-18T07:42:52.347Z,165.00
2022-10-18T07:43:52.361Z,166.20
2022-10-18T07:44:52.347Z,161.10
2022-10-18T07:45:52.281Z,154.60
2022-10-18T07:46:52.270Z,147.50
2022-10-18T07:47:52.292Z,146.90
2022-10-18T07:48:52.323Z,155.00
2022-10-18T07:49:52.243Z,177.90
2022-10-18T07:50:52.251Z,154.60
2022-10-18T07:51:52.265Z,159.70
2022-10-18T07:52:52.256Z,149.60
2022-10-18T07:53:52.266Z,155.30
2022-10-18T07:54:52.204Z,144.80
2022-10-18T07:55:52.184Z,150.80
2022-10-18T07:56:52.163Z,143.40
2022-10-18T07:57:52.224Z,142.90
2022-10-18T07:58:52.171Z,137.40
2022-10-18T07:59:52.145Z,145.20
2022-10-18T08:00:52.132Z,134.30
2022-10-18T08:01:52.287Z,135.20
2022-10-18T08:02:52.116Z,139.50
2022-10-18T08:03:52.124Z,139.50
2022-10-18T08:04:52.119Z,139.20
2022-10-18T08:05:52.100Z,139.50
2022-10-18T08:06:52.078Z,137.00
2022-10-18T08:07:52.086Z,135.20
2022-10-18T08:08:52.056Z,137.80
2022-10-18T08:09:52.044Z,130.70
2022-10-18T08:10:52.032Z,135.50
2022-10-18T08:11:52.031Z,146.50
2022-10-18T08:12:51.998Z,134.50
2022-10-18T08:13:52.023Z,137.70
2022-10-18T08:14:52.008Z,137.10
2022-10-18T08:15:51.972Z,123.90
2022-10-18T08:16:51.967Z,125.80
2022-10-18T08:17:51.964Z,123.60
2022-10-18T08:18:51.960Z,113.40
2022-10-18T08:20:04.774Z,105.30
2022-10-18T08:20:51.931Z,105.50
2022-10-18T08:21:51.913Z,114.00
2022-10-18T08:22:54.552Z,107.80
2022-10-18T08:23:51.891Z,105.40
2022-10-18T08:24:51.919Z,109.90
2022-10-18T08:25:51.893Z,106.80
2022-10-18T08:26:51.843Z,100.80
2022-10-18T08:27:51.844Z,105.90
2022-10-18T08:29:10.187Z,79.90
2022-10-18T08:29:51.907Z,75.10
2022-10-18T08:30:51.876Z,87.10
2022-10-18T08:31:52.386Z,85.70
2022-10-18T08:32:51.781Z,86.60
2022-10-18T08:33:51.807Z,74.60
2022-10-18T08:34:51.778Z,73.10
2022-10-18T08:35:51.793Z,76.10
2022-10-18T08:36:51.776Z,76.80
2022-10-18T08:37:51.782Z,77.00
2022-10-18T08:38:51.722Z,67.40
2022-10-18T08:39:51.733Z,75.20
2022-10-18T08:40:51.720Z,76.80
2022-10-18T08:41:51.705Z,70.40
2022-10-18T08:42:51.669Z,68.70
2022-10-18T08:43:51.702Z,74.30
2022-10-18T08:44:51.666Z,77.30
2022-10-18T08:45:51.677Z,71.20
2022-10-18T08:46:51.642Z,68.10
2022-10-18T08:47:51.642Z,74.40
2022-10-18T08:48:51.622Z,64.80
2022-10-18T08:49:51.639Z,59.80
2022-10-18T08:50:51.593Z,68.90
2022-10-18T08:51:51.619Z,65.90
2022-10-18T08:52:51.587Z,62.80
2022-10-18T08:53:51.605Z,69.00
2022-10-18T08:54:51.574Z,69.20
2022-10-18T08:55:51.559Z,62.30
2022-10-18T08:56:51.559Z,64.90
2022-10-18T08:57:51.529Z,61.40
2022-10-18T08:58:51.582Z,64.80
2022-10-18T08:59:51.503Z,60.70
2022-10-18T09:00:51.527Z,61.80
2022-10-18T09:01:51.498Z,68.10
2022-10-18T09:02:51.478Z,69.60
2022-10-18T09:03:51.542Z,67.40
2022-10-18T09:04:51.455Z,68.40
2022-10-18T09:05:51.434Z,70.00
2022-10-18T09:06:51.446Z,69.30
2022-10-18T09:07:51.448Z,65.30
2022-10-18T09:08:51.400Z,64.70
2022-10-18T09:09:51.390Z,72.50
2022-10-18T09:10:51.500Z,68.20
2022-10-18T09:11:51.403Z,64.70
2022-10-18T09:12:51.378Z,63.40
2022-10-18T09:13:51.349Z,64.60
2022-10-18T09:14:51.377Z,63.80
2022-10-18T09:15:51.315Z,59.90
2022-10-18T09:16:51.367Z,62.40
2022-10-18T09:17:51.320Z,61.60
2022-10-18T09:18:51.317Z,53.20
2022-10-18T09:19:51.304Z,55.60
2022-10-18T09:20:51.286Z,57.00
2022-10-18T09:21:51.293Z,60.40
2022-10-18T09:22:51.292Z,55.60
2022-10-18T09:23:51.282Z,48.60
2022-10-18T09:24:51.285Z,47.80
2022-10-18T09:25:51.221Z,52.90
2022-10-18T09:26:51.231Z,46.10
2022-10-18T09:27:51.211Z,53.70
2022-10-18T09:28:51.222Z,49.00
2022-10-18T09:29:51.214Z,47.90
2022-10-18T09:30:52.289Z,55.70
2022-10-18T09:31:51.147Z,51.00
2022-10-18T09:32:51.223Z,51.30
2022-10-18T09:33:51.129Z,43.80
2022-10-18T09:34:51.143Z,49.20
2022-10-18T09:35:51.124Z,52.20
2022-10-18T09:36:51.115Z,48.20
2022-10-18T09:37:51.109Z,49.90
2022-10-18T09:38:51.130Z,46.20
2022-10-18T09:39:51.076Z,48.20
2022-10-18T09:40:51.080Z,43.10
2022-10-18T09:41:51.058Z,42.50
2022-10-18T09:42:51.051Z,42.70
2022-10-18T09:43:51.043Z,45.90
2022-10-18T09:44:51.046Z,42.40
2022-10-18T09:45:51.036Z,41.40
2022-10-18T09:46:51.012Z,37.80
2022-10-18T09:47:50.986Z,41.10
2022-10-18T09:48:50.994Z,42.60
2022-10-18T09:49:50.977Z,43.40
2022-10-18T09:50:50.961Z,42.00
2022-10-18T09:51:50.971Z,40.30
2022-10-18T09:52:50.955Z,37.00
2022-10-18T09:53:50.961Z,40.30
2022-10-18T09:54:50.913Z,39.30
2022-10-18T09:55:50.910Z,41.60
2022-10-18T09:56:50.959Z,39.70
2022-10-18T09:57:50.930Z,38.10
2022-10-18T09:58:50.897Z,40.30
2022-10-18T09:59:50.879Z,38.00
2022-10-18T10:00:50.881Z,44.20
2022-10-18T10:01:50.869Z,35.70
2022-10-18T10:02:50.961Z,41.30
2022-10-18T10:03:50.823Z,35.10
2022-10-18T10:04:50.839Z,33.40
2022-10-18T10:05:50.809Z,28.90
2022-10-18T10:06:50.811Z,35.10
2022-10-18T10:07:50.795Z,36.80
2022-10-18T10:08:50.787Z,37.60
2022-10-18T10:09:50.785Z,33.10
2022-10-18T10:10:50.761Z,33.60
2022-10-18T10:11:50.748Z,36.70
2022-10-18T10:12:50.763Z,36.90
2022-10-18T10:13:50.818Z,34.20
2022-10-18T10:14:50.714Z,31.70
2022-10-18T10:15:50.707Z,28.20
2022-10-18T10:16:50.718Z,30.20
2022-10-18T10:17:50.715Z,28.70
2022-10-18T10:18:50.708Z,28.00
2022-10-18T10:19:50.650Z,29.60
2022-10-18T10:20:50.666Z,35.60
2022-10-18T10:21:50.681Z,31.90
2022-10-18T10:22:50.639Z,32.90
2022-10-18T10:23:50.630Z,29.90
2022-10-18T10:24:50.639Z,34.80
2022-10-18T10:25:50.611Z,29.90
2022-10-18T10:26:50.620Z,34.20
2022-10-18T10:27:50.615Z,34.30
2022-10-18T10:28:50.631Z,31.60
2022-10-18T10:29:50.617Z,34.40
2022-10-18T10:30:50.565Z,30.20
2022-10-18T10:31:50.543Z,31.20
2022-10-18T10:32:50.543Z,30.30
2022-10-18T10:33:50.540Z,33.20
2022-10-18T10:34:50.513Z,31.00
2022-10-18T10:35:53.591Z,28.70
2022-10-18T10:36:50.495Z,30.10
2022-10-18T10:37:50.485Z,31.80
2022-10-18T10:38:50.468Z,27.80
2022-10-18T10:40:06.952Z,32.90
2022-10-18T10:40:50.490Z,29.70
2022-10-18T10:41:50.489Z,29.80
2022-10-18T10:42:50.441Z,32.00
2022-10-18T10:43:50.408Z,33.50
2022-10-18T10:44:50.411Z,25.90
2022-10-18T10:45:50.389Z,34.90
2022-10-18T10:46:50.413Z,32.50
2022-10-18T10:47:50.401Z,31.30
2022-10-18T10:48:50.379Z,33.20
2022-10-18T10:49:50.397Z,33.80
2022-10-18T10:50:53.118Z,34.90
2022-10-18T10:51:57.760Z,36.20
2022-10-18T10:52:50.362Z,30.90
2022-10-18T10:53:50.321Z,33.90
2022-10-18T10:54:52.179Z,39.80
2022-10-18T10:55:50.326Z,36.10
2022-10-18T10:56:50.334Z,34.60
2022-10-18T10:57:50.279Z,34.70
2022-10-18T10:58:50.310Z,35.50
2022-10-18T10:59:50.254Z,32.40
2022-10-18T11:00:50.286Z,35.50
2022-10-18T11:01:50.253Z,34.00
2022-10-18T11:02:59.406Z,36.00
2022-10-18T11:03:50.332Z,40.10
2022-10-18T11:04:50.247Z,32.20
2022-10-18T11:05:50.202Z,30.30
2022-10-18T11:06:50.185Z,34.80
2022-10-18T11:07:50.183Z,30.50
2022-10-18T11:08:50.175Z,31.60
2022-10-18T11:09:50.149Z,29.30
2022-10-18T11:10:50.165Z,33.60
2022-10-18T11:11:50.146Z,36.20
2022-10-18T11:12:50.139Z,34.20
2022-10-18T11:13:56.981Z,29.40
2022-10-18T11:14:50.102Z,26.90
2022-10-18T11:15:50.094Z,34.10
2022-10-18T11:16:50.097Z,28.40
2022-10-18T11:17:50.164Z,30.60
2022-10-18T11:18:50.085Z,36.50
2022-10-18T11:19:50.059Z,30.00
2022-10-18T11:20:50.057Z,31.60
2022-10-18T11:21:50.026Z,29.60
2022-10-18T11:22:50.018Z,29.50
2022-10-18T11:23:50.031Z,26.70
2022-10-18T11:24:50.000Z,34.00
2022-10-18T11:25:49.999Z,29.10
2022-10-18T11:26:53.473Z,34.50
2022-10-18T11:27:50.005Z,31.00
2022-10-18T11:28:50.059Z,28.00
2022-10-18T11:29:49.959Z,29.20
2022-10-18T11:30:49.986Z,30.20
2022-10-18T11:31:49.928Z,25.00
2022-10-18T11:32:49.924Z,27.50
2022-10-18T11:34:08.188Z,25.10
2022-10-18T11:34:49.919Z,26.60
2022-10-18T11:35:49.935Z,28.70
2022-10-18T11:36:57.953Z,30.00
2022-10-18T11:37:49.887Z,29.90
2022-10-18T11:38:49.875Z,27.10
2022-10-18T11:39:49.864Z,28.50
2022-10-18T11:40:49.854Z,21.10
2022-10-18T11:41:49.841Z,23.20
2022-10-18T11:42:49.819Z,20.30
2022-10-18T11:44:02.354Z,26.70
2022-10-18T11:44:49.800Z,23.30
2022-10-18T11:45:49.816Z,26.70
2022-10-18T11:46:49.795Z,21.70
2022-10-18T11:47:52.306Z,20.30
2022-10-18T11:48:49.777Z,25.00
2022-10-18T11:49:49.784Z,23.80
2022-10-18T11:50:49.756Z,22.20
2022-10-18T11:52:07.367Z,23.30
2022-10-18T11:52:49.720Z,21.80
2022-10-18T11:53:51.973Z,24.70
2022-10-18T11:54:49.721Z,21.80
2022-10-18T11:55:49.666Z,21.30
2022-10-18T11:56:49.712Z,21.60
2022-10-18T11:57:49.674Z,23.60
2022-10-18T11:58:49.662Z,18.80
2022-10-18T11:59:49.637Z,18.10
2022-10-18T12:00:49.646Z,23.80
2022-10-18T12:01:49.638Z,22.30
2022-10-18T12:02:49.703Z,19.90
2022-10-18T12:03:49.588Z,16.60
2022-10-18T12:05:05.152Z,15.10
2022-10-18T12:05:49.582Z,17.30
2022-10-18T12:06:49.618Z,17.80
2022-10-18T12:07:49.556Z,17.60
2022-10-18T12:08:49.573Z,17.50
2022-10-18T12:09:49.617Z,15.10
2022-10-18T12:11:04.566Z,21.20
2022-10-18T12:11:54.885Z,15.60
2022-10-18T12:12:49.549Z,17.20
2022-10-18T12:13:49.518Z,17.20
2022-10-18T12:14:49.499Z,21.30
2022-10-18T12:15:49.481Z,18.80
2022-10-18T12:16:53.641Z,19.50
2022-10-18T12:17:50.301Z,21.20
2022-10-18T12:18:49.529Z,18.60
2022-10-18T12:19:49.441Z,21.40
2022-10-18T12:20:49.445Z,16.70
2022-10-18T12:21:49.448Z,18.70
2022-10-18T12:22:49.435Z,16.80
2022-10-18T12:23:49.396Z,16.70
2022-10-18T12:24:49.409Z,14.10
2022-10-18T12:25:49.382Z,16.70
2022-10-18T12:26:49.366Z,17.60
2022-10-18T12:27:49.449Z,15.40
2022-10-18T12:28:49.393Z,15.50
2022-10-18T12:29:50.406Z,22.30
2022-10-18T12:30:49.323Z,17.20
2022-10-18T12:31:49.330Z,16.40
2022-10-18T12:33:03.522Z,18.90
2022-10-18T12:33:49.318Z,21.10
2022-10-18T12:34:49.311Z,20.20
2022-10-18T12:35:49.276Z,17.80
2022-10-18T12:36:49.284Z,18.10
2022-10-18T12:37:49.250Z,19.80
2022-10-18T12:38:49.263Z,16.20
2022-10-18T12:40:49.244Z,13.50
2022-10-18T12:41:49.220Z,16.90
2022-10-18T12:42:49.207Z,17.40
2022-10-18T12:43:49.204Z,14.40
2022-10-18T12:44:49.228Z,17.40
2022-10-18T12:45:49.167Z,13.40
2022-10-18T12:46:49.151Z,13.40
2022-10-18T12:47:49.180Z,15.10
2022-10-18T12:48:49.164Z,14.20
2022-10-18T12:49:49.127Z,12.70
2022-10-18T12:50:49.127Z,14.40
2022-10-18T12:51:49.119Z,16.40
2022-10-18T12:52:49.108Z,13.80